sensor_id;sensor_type;location;lat;lon;timestamp;P1;durP1;ratioP1;P2;durP2;ratioP2
6372;SDS011;3219;51.362;7.074;2022-10-16T00:01:37;4.72;;;2.55;;
6372;SDS011;3219;51.362;7.074;2022-10-16T00:04:04;6.50;;;2.30;;
6372;SDS011;3219;51.362;7.074;2022-10-16T00:06:31;5.82;;;2.22;;
6372;SDS011;3219;51.362;7.074;2022-10-16T00:09:00;5.20;;;2.10;;
6372;SDS011;3219;51.362;7.074;2022-10-16T00:11:27;3.45;;;1.70;;
6372;SDS011;3219;51.362;7.074;2022-10-16T00:13:56;7.07;;;2.35;;
6372;SDS011;3219;51.362;7.074;2022-10-16T00:16:24;4.55;;;1.95;;
6372;SDS011;3219;51.362;7.074;2022-10-16T00:18:52;3.97;;;2.13;;
6372;SDS011;3219;51.362;7.074;2022-10-16T00:21:20;3.33;;;1.50;;
6372;SDS011;3219;51.362;7.074;2022-10-16T00:23:50;5.00;;;2.20;;
6372;SDS011;3219;51.362;7.074;2022-10-16T00:26:19;7.40;;;1.95;;
6372;SDS011;3219;51.362;7.074;2022-10-16T00:28:46;4.93;;;1.95;;
6372;SDS011;3219;51.362;7.074;2022-10-16T00:31:14;3.20;;;1.83;;
6372;SDS011;3219;51.362;7.074;2022-10-16T00:33:41;6.50;;;2.60;;
6372;SDS011;3219;51.362;7.074;2022-10-16T00:36:09;3.38;;;1.90;;
6372;SDS011;3219;51.362;7.074;2022-10-16T00:38:37;4.38;;;1.70;;
6372;SDS011;3219;51.362;7.074;2022-10-16T00:41:04;4.15;;;2.22;;
6372;SDS011;3219;51.362;7.074;2022-10-16T00:43:35;4.28;;;2.00;;
6372;SDS011;3219;51.362;7.074;2022-10-16T00:46:04;3.45;;;1.75;;
6372;SDS011;3219;51.362;7.074;2022-10-16T00:48:36;4.15;;;2.05;;
6372;SDS011;3219;51.362;7.074;2022-10-16T00:51:03;3.90;;;1.90;;
6372;SDS011;3219;51.362;7.074;2022-10-16T00:53:32;3.15;;;2.17;;
6372;SDS011;3219;51.362;7.074;2022-10-16T00:55:58;4.68;;;2.30;;
6372;SDS011;3219;51.362;7.074;2022-10-16T00:58:25;3.40;;;1.65;;
6372;SDS011;3219;51.362;7.074;2022-10-16T01:00:54;3.40;;;1.73;;
6372;SDS011;3219;51.362;7.074;2022-10-16T01:03:24;3.67;;;1.90;;
6372;SDS011;3219;51.362;7.074;2022-10-16T01:05:56;3.72;;;1.83;;
6372;SDS011;3219;51.362;7.074;2022-10-16T01:08:37;4.20;;;1.70;;
6372;SDS011;3219;51.362;7.074;2022-10-16T01:11:11;3.65;;;2.03;;
6372;SDS011;3219;51.362;7.074;2022-10-16T01:13:46;4.47;;;1.73;;
6372;SDS011;3219;51.362;7.074;2022-10-16T01:16:20;3.55;;;1.70;;
6372;SDS011;3219;51.362;7.074;2022-10-16T01:18:57;4.32;;;2.00;;
6372;SDS011;3219;51.362;7.074;2022-10-16T01:21:29;4.38;;;2.22;;
6372;SDS011;3219;51.362;7.074;2022-10-16T01:24:00;2.92;;;2.10;;
6372;SDS011;3219;51.362;7.074;2022-10-16T01:26:36;5.07;;;2.20;;
6372;SDS011;3219;51.362;7.074;2022-10-16T01:29:16;6.07;;;1.77;;
6372;SDS011;3219;51.362;7.074;2022-10-16T01:31:47;2.92;;;1.92;;
6372;SDS011;3219;51.362;7.074;2022-10-16T01:34:21;4.88;;;2.00;;
6372;SDS011;3219;51.362;7.074;2022-10-16T01:36:52;4.53;;;2.42;;
6372;SDS011;3219;51.362;7.074;2022-10-16T01:39:22;3.72;;;2.10;;
6372;SDS011;3219;51.362;7.074;2022-10-16T01:41:55;5.28;;;2.33;;
6372;SDS011;3219;51.362;7.074;2022-10-16T01:44:29;3.65;;;2.13;;
6372;SDS011;3219;51.362;7.074;2022-10-16T01:46:58;4.50;;;2.20;;
6372;SDS011;3219;51.362;7.074;2022-10-16T01:49:26;4.30;;;2.40;;
6372;SDS011;3219;51.362;7.074;2022-10-16T01:51:58;7.07;;;2.13;;
6372;SDS011;3219;51.362;7.074;2022-10-16T01:54:28;5.43;;;1.75;;
6372;SDS011;3219;51.362;7.074;2022-10-16T01:56:58;2.95;;;1.90;;
6372;SDS011;3219;51.362;7.074;2022-10-16T01:59:26;5.50;;;2.20;;
6372;SDS011;3219;51.362;7.074;2022-10-16T02:01:59;2.92;;;1.98;;
6372;SDS011;3219;51.362;7.074;2022-10-16T02:04:31;2.28;;;1.70;;
6372;SDS011;3219;51.362;7.074;2022-10-16T02:07:00;3.28;;;1.83;;
6372;SDS011;3219;51.362;7.074;2022-10-16T02:09:27;5.13;;;2.03;;
6372;SDS011;3219;51.362;7.074;2022-10-16T02:11:55;7.03;;;2.10;;
6372;SDS011;3219;51.362;7.074;2022-10-16T02:14:27;1.98;;;1.73;;
6372;SDS011;3219;51.362;7.074;2022-10-16T02:16:56;4.70;;;2.10;;
6372;SDS011;3219;51.362;7.074;2022-10-16T02:19:23;3.00;;;1.45;;
6372;SDS011;3219;51.362;7.074;2022-10-16T02:21:51;2.83;;;1.90;;
6372;SDS011;3219;51.362;7.074;2022-10-16T02:24:22;3.58;;;1.55;;
6372;SDS011;3219;51.362;7.074;2022-10-16T02:26:57;3.30;;;1.60;;
6372;SDS011;3219;51.362;7.074;2022-10-16T02:29:33;3.95;;;1.65;;
6372;SDS011;3219;51.362;7.074;2022-10-16T02:32:06;1.65;;;1.40;;
6372;SDS011;3219;51.362;7.074;2022-10-16T02:34:36;2.08;;;1.25;;
6372;SDS011;3219;51.362;7.074;2022-10-16T02:37:04;7.13;;;1.60;;
6372;SDS011;3219;51.362;7.074;2022-10-16T02:39:31;1.92;;;1.45;;
6372;SDS011;3219;51.362;7.074;2022-10-16T02:41:59;3.40;;;1.40;;
6372;SDS011;3219;51.362;7.074;2022-10-16T02:44:26;4.30;;;1.60;;
6372;SDS011;3219;51.362;7.074;2022-10-16T02:46:53;1.52;;;1.13;;
6372;SDS011;3219;51.362;7.074;2022-10-16T02:49:21;2.17;;;1.60;;
6372;SDS011;3219;51.362;7.074;2022-10-16T02:51:48;1.73;;;1.27;;
6372;SDS011;3219;51.362;7.074;2022-10-16T02:54:15;4.95;;;1.50;;
6372;SDS011;3219;51.362;7.074;2022-10-16T02:56:43;3.60;;;1.55;;
6372;SDS011;3219;51.362;7.074;2022-10-16T02:59:11;1.52;;;1.40;;
6372;SDS011;3219;51.362;7.074;2022-10-16T03:01:38;5.50;;;1.50;;
6372;SDS011;3219;51.362;7.074;2022-10-16T03:04:05;2.60;;;1.40;;
6372;SDS011;3219;51.362;7.074;2022-10-16T03:06:33;2.40;;;1.42;;
6372;SDS011;3219;51.362;7.074;2022-10-16T03:09:00;3.88;;;1.40;;
6372;SDS011;3219;51.362;7.074;2022-10-16T03:11:27;2.05;;;1.10;;
6372;SDS011;3219;51.362;7.074;2022-10-16T03:13:53;3.85;;;1.27;;
6372;SDS011;3219;51.362;7.074;2022-10-16T03:16:20;2.75;;;1.40;;
6372;SDS011;3219;51.362;7.074;2022-10-16T03:18:47;3.28;;;1.45;;
6372;SDS011;3219;51.362;7.074;2022-10-16T03:21:14;1.42;;;1.30;;
6372;SDS011;3219;51.362;7.074;2022-10-16T03:23:43;3.67;;;1.55;;
6372;SDS011;3219;51.362;7.074;2022-10-16T03:26:10;2.88;;;1.52;;
6372;SDS011;3219;51.362;7.074;2022-10-16T03:28:36;2.45;;;1.40;;
6372;SDS011;3219;51.362;7.074;2022-10-16T03:31:03;1.33;;;1.20;;
6372;SDS011;3219;51.362;7.074;2022-10-16T03:33:30;2.35;;;1.40;;
6372;SDS011;3219;51.362;7.074;2022-10-16T03:35:57;2.20;;;1.48;;
6372;SDS011;3219;51.362;7.074;2022-10-16T03:38:24;1.83;;;1.20;;
6372;SDS011;3219;51.362;7.074;2022-10-16T03:40:52;2.15;;;1.50;;
6372;SDS011;3219;51.362;7.074;2022-10-16T03:43:18;2.20;;;1.30;;
6372;SDS011;3219;51.362;7.074;2022-10-16T03:45:45;5.22;;;1.75;;
6372;SDS011;3219;51.362;7.074;2022-10-16T03:48:12;1.83;;;1.40;;
6372;SDS011;3219;51.362;7.074;2022-10-16T03:50:39;1.83;;;1.20;;
6372;SDS011;3219;51.362;7.074;2022-10-16T03:53:05;2.55;;;1.80;;
6372;SDS011;3219;51.362;7.074;2022-10-16T03:55:32;2.53;;;1.40;;
6372;SDS011;3219;51.362;7.074;2022-10-16T03:58:00;2.53;;;1.25;;
6372;SDS011;3219;51.362;7.074;2022-10-16T04:00:27;2.00;;;1.58;;
6372;SDS011;3219;51.362;7.074;2022-10-16T04:02:54;4.55;;;1.50;;
6372;SDS011;3219;51.362;7.074;2022-10-16T04:05:20;3.70;;;1.13;;
6372;SDS011;3219;51.362;7.074;2022-10-16T04:07:47;2.53;;;1.15;;
6372;SDS011;3219;51.362;7.074;2022-10-16T04:10:14;2.35;;;1.58;;
6372;SDS011;3219;51.362;7.074;2022-10-16T04:12:41;1.38;;;1.23;;
6372;SDS011;3219;51.362;7.074;2022-10-16T04:15:09;2.08;;;1.38;;
6372;SDS011;3219;51.362;7.074;2022-10-16T04:17:36;2.33;;;1.17;;
6372;SDS011;3219;51.362;7.074;2022-10-16T04:20:03;2.10;;;1.13;;
6372;SDS011;3219;51.362;7.074;2022-10-16T04:22:30;1.55;;;1.20;;
6372;SDS011;3219;51.362;7.074;2022-10-16T04:24:57;3.47;;;1.42;;
6372;SDS011;3219;51.362;7.074;2022-10-16T04:27:24;3.92;;;1.20;;
6372;SDS011;3219;51.362;7.074;2022-10-16T04:29:51;4.63;;;1.40;;
6372;SDS011;3219;51.362;7.074;2022-10-16T04:32:19;3.40;;;1.35;;
6372;SDS011;3219;51.362;7.074;2022-10-16T04:34:46;1.80;;;1.40;;
6372;SDS011;3219;51.362;7.074;2022-10-16T04:37:12;3.33;;;1.30;;
6372;SDS011;3219;51.362;7.074;2022-10-16T04:39:39;2.08;;;1.30;;
6372;SDS011;3219;51.362;7.074;2022-10-16T04:42:06;1.50;;;1.00;;
6372;SDS011;3219;51.362;7.074;2022-10-16T04:44:33;1.70;;;1.13;;
6372;SDS011;3219;51.362;7.074;2022-10-16T04:47:00;3.53;;;1.17;;
6372;SDS011;3219;51.362;7.074;2022-10-16T04:49:28;1.98;;;1.20;;
6372;SDS011;3219;51.362;7.074;2022-10-16T04:51:55;4.47;;;1.20;;
6372;SDS011;3219;51.362;7.074;2022-10-16T04:54:22;2.05;;;1.20;;
6372;SDS011;3219;51.362;7.074;2022-10-16T04:56:49;2.35;;;1.10;;
6372;SDS011;3219;51.362;7.074;2022-10-16T04:59:17;5.65;;;1.50;;
6372;SDS011;3219;51.362;7.074;2022-10-16T05:01:44;3.83;;;1.08;;
6372;SDS011;3219;51.362;7.074;2022-10-16T05:04:11;2.92;;;1.83;;
6372;SDS011;3219;51.362;7.074;2022-10-16T05:06:41;1.77;;;1.20;;
6372;SDS011;3219;51.362;7.074;2022-10-16T05:09:08;4.60;;;1.67;;
6372;SDS011;3219;51.362;7.074;2022-10-16T05:11:35;1.75;;;1.30;;
6372;SDS011;3219;51.362;7.074;2022-10-16T05:14:02;1.63;;;1.20;;
6372;SDS011;3219;51.362;7.074;2022-10-16T05:16:29;2.72;;;1.58;;
6372;SDS011;3219;51.362;7.074;2022-10-16T05:18:56;2.63;;;1.67;;
6372;SDS011;3219;51.362;7.074;2022-10-16T05:21:23;3.72;;;1.40;;
6372;SDS011;3219;51.362;7.074;2022-10-16T05:23:51;4.32;;;1.40;;
6372;SDS011;3219;51.362;7.074;2022-10-16T05:26:20;1.75;;;1.50;;
6372;SDS011;3219;51.362;7.074;2022-10-16T05:28:47;3.22;;;1.60;;
6372;SDS011;3219;51.362;7.074;2022-10-16T05:31:14;1.90;;;1.45;;
6372;SDS011;3219;51.362;7.074;2022-10-16T05:33:41;2.33;;;1.30;;
6372;SDS011;3219;51.362;7.074;2022-10-16T05:36:09;1.38;;;1.05;;
6372;SDS011;3219;51.362;7.074;2022-10-16T05:38:36;3.70;;;1.40;;
6372;SDS011;3219;51.362;7.074;2022-10-16T05:41:06;2.25;;;1.40;;
6372;SDS011;3219;51.362;7.074;2022-10-16T05:43:33;4.38;;;1.65;;
6372;SDS011;3219;51.362;7.074;2022-10-16T05:46:01;4.82;;;1.63;;
6372;SDS011;3219;51.362;7.074;2022-10-16T05:48:28;5.03;;;1.95;;
6372;SDS011;3219;51.362;7.074;2022-10-16T05:50:56;1.80;;;1.38;;
6372;SDS011;3219;51.362;7.074;2022-10-16T05:53:24;2.05;;;1.52;;
6372;SDS011;3219;51.362;7.074;2022-10-16T05:55:52;3.15;;;1.60;;
6372;SDS011;3219;51.362;7.074;2022-10-16T05:58:21;5.10;;;1.65;;
6372;SDS011;3219;51.362;7.074;2022-10-16T06:00:54;2.00;;;1.40;;
6372;SDS011;3219;51.362;7.074;2022-10-16T06:03:22;2.95;;;1.50;;
6372;SDS011;3219;51.362;7.074;2022-10-16T06:05:53;4.47;;;1.67;;
6372;SDS011;3219;51.362;7.074;2022-10-16T06:08:21;1.88;;;1.30;;
6372;SDS011;3219;51.362;7.074;2022-10-16T06:10:49;2.90;;;1.40;;
6372;SDS011;3219;51.362;7.074;2022-10-16T06:13:16;2.70;;;1.70;;
6372;SDS011;3219;51.362;7.074;2022-10-16T06:15:45;3.47;;;1.88;;
6372;SDS011;3219;51.362;7.074;2022-10-16T06:18:13;4.47;;;1.73;;
6372;SDS011;3219;51.362;7.074;2022-10-16T06:20:40;4.68;;;1.60;;
6372;SDS011;3219;51.362;7.074;2022-10-16T06:23:08;3.28;;;1.60;;
6372;SDS011;3219;51.362;7.074;2022-10-16T06:25:36;3.70;;;1.60;;
6372;SDS011;3219;51.362;7.074;2022-10-16T06:28:03;1.80;;;1.40;;
6372;SDS011;3219;51.362;7.074;2022-10-16T06:30:31;3.97;;;1.65;;
6372;SDS011;3219;51.362;7.074;2022-10-16T06:33:00;5.32;;;2.00;;
6372;SDS011;3219;51.362;7.074;2022-10-16T06:35:27;3.25;;;1.45;;
6372;SDS011;3219;51.362;7.074;2022-10-16T06:37:56;2.13;;;1.40;;
6372;SDS011;3219;51.362;7.074;2022-10-16T06:40:24;4.22;;;1.80;;
6372;SDS011;3219;51.362;7.074;2022-10-16T06:42:53;2.92;;;1.80;;
6372;SDS011;3219;51.362;7.074;2022-10-16T06:45:21;4.43;;;1.83;;
6372;SDS011;3219;51.362;7.074;2022-10-16T06:47:48;4.90;;;1.83;;
6372;SDS011;3219;51.362;7.074;2022-10-16T06:50:16;3.83;;;1.63;;
6372;SDS011;3219;51.362;7.074;2022-10-16T06:52:43;3.42;;;1.73;;
6372;SDS011;3219;51.362;7.074;2022-10-16T06:55:11;4.03;;;1.77;;
6372;SDS011;3219;51.362;7.074;2022-10-16T06:57:38;5.90;;;1.67;;
6372;SDS011;3219;51.362;7.074;2022-10-16T07:00:05;2.50;;;1.67;;
6372;SDS011;3219;51.362;7.074;2022-10-16T07:02:33;2.60;;;1.40;;
6372;SDS011;3219;51.362;7.074;2022-10-16T07:05:00;3.15;;;1.63;;
6372;SDS011;3219;51.362;7.074;2022-10-16T07:07:28;2.90;;;1.75;;
6372;SDS011;3219;51.362;7.074;2022-10-16T07:09:55;2.28;;;1.63;;
6372;SDS011;3219;51.362;7.074;2022-10-16T07:12:22;2.83;;;1.90;;
6372;SDS011;3219;51.362;7.074;2022-10-16T07:14:48;2.40;;;1.50;;
6372;SDS011;3219;51.362;7.074;2022-10-16T07:17:17;5.20;;;1.70;;
6372;SDS011;3219;51.362;7.074;2022-10-16T07:19:44;2.63;;;1.67;;
6372;SDS011;3219;51.362;7.074;2022-10-16T07:22:11;4.18;;;1.60;;
6372;SDS011;3219;51.362;7.074;2022-10-16T07:24:39;2.22;;;1.40;;
6372;SDS011;3219;51.362;7.074;2022-10-16T07:27:06;2.88;;;1.50;;
6372;SDS011;3219;51.362;7.074;2022-10-16T07:29:33;4.00;;;1.80;;
6372;SDS011;3219;51.362;7.074;2022-10-16T07:31:59;3.67;;;1.95;;
6372;SDS011;3219;51.362;7.074;2022-10-16T07:34:27;2.67;;;1.60;;
6372;SDS011;3219;51.362;7.074;2022-10-16T07:36:54;2.20;;;1.50;;
6372;SDS011;3219;51.362;7.074;2022-10-16T07:39:21;1.73;;;1.42;;
6372;SDS011;3219;51.362;7.074;2022-10-16T07:41:49;1.45;;;1.35;;
6372;SDS011;3219;51.362;7.074;2022-10-16T07:44:21;6.32;;;1.67;;
6372;SDS011;3219;51.362;7.074;2022-10-16T07:46:48;8.10;;;2.00;;
6372;SDS011;3219;51.362;7.074;2022-10-16T07:49:15;3.80;;;1.45;;
6372;SDS011;3219;51.362;7.074;2022-10-16T07:51:42;3.35;;;1.80;;
6372;SDS011;3219;51.362;7.074;2022-10-16T07:54:09;6.38;;;1.70;;
6372;SDS011;3219;51.362;7.074;2022-10-16T07:56:36;5.18;;;2.00;;
6372;SDS011;3219;51.362;7.074;2022-10-16T07:59:05;2.95;;;1.58;;
6372;SDS011;3219;51.362;7.074;2022-10-16T08:01:32;6.18;;;1.80;;
6372;SDS011;3219;51.362;7.074;2022-10-16T08:03:58;3.53;;;1.55;;
6372;SDS011;3219;51.362;7.074;2022-10-16T08:06:25;3.53;;;1.55;;
6372;SDS011;3219;51.362;7.074;2022-10-16T08:09:00;2.25;;;1.52;;
6372;SDS011;3219;51.362;7.074;2022-10-16T08:11:27;4.95;;;2.03;;
6372;SDS011;3219;51.362;7.074;2022-10-16T08:13:55;10.57;;;2.03;;
6372;SDS011;3219;51.362;7.074;2022-10-16T08:16:23;4.20;;;1.58;;
6372;SDS011;3219;51.362;7.074;2022-10-16T08:18:51;8.00;;;1.92;;
6372;SDS011;3219;51.362;7.074;2022-10-16T08:21:19;4.80;;;1.77;;
6372;SDS011;3219;51.362;7.074;2022-10-16T08:23:48;7.40;;;1.40;;
6372;SDS011;3219;51.362;7.074;2022-10-16T08:26:15;5.40;;;1.33;;
6372;SDS011;3219;51.362;7.074;2022-10-16T08:28:44;4.30;;;1.70;;
6372;SDS011;3219;51.362;7.074;2022-10-16T08:31:12;3.50;;;1.98;;
6372;SDS011;3219;51.362;7.074;2022-10-16T08:33:41;3.50;;;1.50;;
6372;SDS011;3219;51.362;7.074;2022-10-16T08:36:09;7.88;;;1.83;;
6372;SDS011;3219;51.362;7.074;2022-10-16T08:38:37;12.35;;;1.58;;
6372;SDS011;3219;51.362;7.074;2022-10-16T08:48:57;13.10;;;1.73;;
6372;SDS011;3219;51.362;7.074;2022-10-16T08:51:25;15.30;;;2.15;;
6372;SDS011;3219;51.362;7.074;2022-10-16T08:53:54;3.50;;;1.50;;
6372;SDS011;3219;51.362;7.074;2022-10-16T08:56:23;11.57;;;1.88;;
6372;SDS011;3219;51.362;7.074;2022-10-16T08:58:51;7.43;;;1.65;;
6372;SDS011;3219;51.362;7.074;2022-10-16T09:01:19;3.08;;;1.40;;
6372;SDS011;3219;51.362;7.074;2022-10-16T09:06:50;4.28;;;1.40;;
6372;SDS011;3219;51.362;7.074;2022-10-16T09:12:09;6.15;;;1.38;;
6372;SDS011;3219;51.362;7.074;2022-10-16T09:14:45;3.35;;;1.00;;
6372;SDS011;3219;51.362;7.074;2022-10-16T09:17:23;5.93;;;1.50;;
6372;SDS011;3219;51.362;7.074;2022-10-16T09:19:54;3.90;;;1.48;;
6372;SDS011;3219;51.362;7.074;2022-10-16T09:22:27;1.83;;;0.85;;
6372;SDS011;3219;51.362;7.074;2022-10-16T09:24:54;4.17;;;1.27;;
6372;SDS011;3219;51.362;7.074;2022-10-16T09:27:22;1.92;;;1.10;;
6372;SDS011;3219;51.362;7.074;2022-10-16T09:29:50;6.93;;;1.55;;
6372;SDS011;3219;51.362;7.074;2022-10-16T09:32:18;4.40;;;1.40;;
6372;SDS011;3219;51.362;7.074;2022-10-16T09:34:47;2.75;;;1.50;;
6372;SDS011;3219;51.362;7.074;2022-10-16T09:37:17;5.22;;;1.27;;
6372;SDS011;3219;51.362;7.074;2022-10-16T09:39:47;4.10;;;1.50;;
6372;SDS011;3219;51.362;7.074;2022-10-16T09:42:15;2.85;;;1.17;;
6372;SDS011;3219;51.362;7.074;2022-10-16T09:44:46;2.83;;;1.33;;
6372;SDS011;3219;51.362;7.074;2022-10-16T09:47:15;4.17;;;1.00;;
6372;SDS011;3219;51.362;7.074;2022-10-16T09:49:50;3.80;;;1.17;;
6372;SDS011;3219;51.362;7.074;2022-10-16T09:52:18;4.13;;;1.25;;
6372;SDS011;3219;51.362;7.074;2022-10-16T09:54:51;3.83;;;1.20;;
6372;SDS011;3219;51.362;7.074;2022-10-16T09:57:19;3.88;;;1.20;;
6372;SDS011;3219;51.362;7.074;2022-10-16T09:59:47;2.60;;;1.20;;
6372;SDS011;3219;51.362;7.074;2022-10-16T10:02:16;4.43;;;1.08;;
6372;SDS011;3219;51.362;7.074;2022-10-16T10:04:45;3.17;;;1.00;;
6372;SDS011;3219;51.362;7.074;2022-10-16T10:07:19;5.93;;;1.00;;
6372;SDS011;3219;51.362;7.074;2022-10-16T10:09:48;6.60;;;1.38;;
6372;SDS011;3219;51.362;7.074;2022-10-16T10:12:21;8.90;;;1.33;;
6372;SDS011;3219;51.362;7.074;2022-10-16T10:14:50;4.72;;;1.00;;
6372;SDS011;3219;51.362;7.074;2022-10-16T10:17:19;2.17;;;0.95;;
6372;SDS011;3219;51.362;7.074;2022-10-16T10:19:48;5.18;;;1.20;;
6372;SDS011;3219;51.362;7.074;2022-10-16T10:22:17;3.38;;;0.90;;
6372;SDS011;3219;51.362;7.074;2022-10-16T10:24:54;5.65;;;1.17;;
6372;SDS011;3219;51.362;7.074;2022-10-16T10:27:24;3.28;;;1.00;;
6372;SDS011;3219;51.362;7.074;2022-10-16T10:29:55;1.42;;;0.68;;
6372;SDS011;3219;51.362;7.074;2022-10-16T10:32:25;3.50;;;1.00;;
6372;SDS011;3219;51.362;7.074;2022-10-16T10:34:59;2.30;;;0.80;;
6372;SDS011;3219;51.362;7.074;2022-10-16T10:37:41;2.42;;;0.70;;
6372;SDS011;3219;51.362;7.074;2022-10-16T10:42:42;6.78;;;0.90;;
6372;SDS011;3219;51.362;7.074;2022-10-16T10:45:14;4.18;;;1.13;;
6372;SDS011;3219;51.362;7.074;2022-10-16T10:47:47;4.40;;;1.10;;
6372;SDS011;3219;51.362;7.074;2022-10-16T10:50:18;4.53;;;1.08;;
6372;SDS011;3219;51.362;7.074;2022-10-16T10:52:51;2.85;;;0.80;;
6372;SDS011;3219;51.362;7.074;2022-10-16T10:55:23;3.53;;;0.70;;
6372;SDS011;3219;51.362;7.074;2022-10-16T10:57:59;4.10;;;1.38;;
6372;SDS011;3219;51.362;7.074;2022-10-16T11:00:35;3.03;;;0.85;;
6372;SDS011;3219;51.362;7.074;2022-10-16T11:03:11;1.80;;;0.90;;
6372;SDS011;3219;51.362;7.074;2022-10-16T11:05:41;7.57;;;0.95;;
6372;SDS011;3219;51.362;7.074;2022-10-16T11:08:11;6.13;;;1.17;;
6372;SDS011;3219;51.362;7.074;2022-10-16T11:10:45;4.28;;;1.08;;
6372;SDS011;3219;51.362;7.074;2022-10-16T11:13:19;4.20;;;1.10;;
6372;SDS011;3219;51.362;7.074;2022-10-16T11:15:50;10.45;;;1.38;;
6372;SDS011;3219;51.362;7.074;2022-10-16T11:18:21;4.53;;;1.00;;
6372;SDS011;3219;51.362;7.074;2022-10-16T11:20:50;5.80;;;1.00;;
6372;SDS011;3219;51.362;7.074;2022-10-16T11:23:21;5.18;;;1.17;;
6372;SDS011;3219;51.362;7.074;2022-10-16T11:25:51;11.82;;;1.10;;
6372;SDS011;3219;51.362;7.074;2022-10-16T11:28:23;3.90;;;1.25;;
6372;SDS011;3219;51.362;7.074;2022-10-16T11:30:55;4.22;;;0.80;;
6372;SDS011;3219;51.362;7.074;2022-10-16T11:33:27;4.63;;;1.00;;
6372;SDS011;3219;51.362;7.074;2022-10-16T11:35:59;5.97;;;1.52;;
6372;SDS011;3219;51.362;7.074;2022-10-16T11:38:31;6.18;;;1.23;;
6372;SDS011;3219;51.362;7.074;2022-10-16T11:41:08;5.03;;;1.30;;
6372;SDS011;3219;51.362;7.074;2022-10-16T11:43:43;4.65;;;1.08;;
6372;SDS011;3219;51.362;7.074;2022-10-16T11:46:16;8.43;;;1.38;;
6372;SDS011;3219;51.362;7.074;2022-10-16T11:48:47;1.90;;;1.00;;
6372;SDS011;3219;51.362;7.074;2022-10-16T11:51:19;4.28;;;0.80;;
6372;SDS011;3219;51.362;7.074;2022-10-16T11:53:53;7.30;;;1.75;;
6372;SDS011;3219;51.362;7.074;2022-10-16T11:56:24;7.25;;;1.30;;
6372;SDS011;3219;51.362;7.074;2022-10-16T11:58:54;3.10;;;1.00;;
6372;SDS011;3219;51.362;7.074;2022-10-16T12:01:27;4.28;;;0.90;;
6372;SDS011;3219;51.362;7.074;2022-10-16T12:04:01;5.88;;;1.42;;
6372;SDS011;3219;51.362;7.074;2022-10-16T12:06:33;3.08;;;1.30;;
6372;SDS011;3219;51.362;7.074;2022-10-16T12:09:03;2.85;;;0.80;;
6372;SDS011;3219;51.362;7.074;2022-10-16T12:11:32;5.68;;;1.15;;
6372;SDS011;3219;51.362;7.074;2022-10-16T12:14:19;2.70;;;0.90;;
6372;SDS011;3219;51.362;7.074;2022-10-16T12:16:52;2.92;;;0.98;;
6372;SDS011;3219;51.362;7.074;2022-10-16T12:19:21;4.07;;;1.30;;
6372;SDS011;3219;51.362;7.074;2022-10-16T12:21:49;3.17;;;0.95;;
6372;SDS011;3219;51.362;7.074;2022-10-16T12:24:21;1.83;;;0.80;;
6372;SDS011;3219;51.362;7.074;2022-10-16T12:26:56;4.88;;;1.02;;
6372;SDS011;3219;51.362;7.074;2022-10-16T12:29:27;2.42;;;0.88;;
6372;SDS011;3219;51.362;7.074;2022-10-16T12:31:58;5.97;;;0.85;;
6372;SDS011;3219;51.362;7.074;2022-10-16T12:34:28;5.43;;;1.08;;
6372;SDS011;3219;51.362;7.074;2022-10-16T12:37:33;6.40;;;1.23;;
6372;SDS011;3219;51.362;7.074;2022-10-16T12:40:11;2.15;;;0.93;;
6372;SDS011;3219;51.362;7.074;2022-10-16T12:42:40;2.53;;;1.27;;
6372;SDS011;3219;51.362;7.074;2022-10-16T12:45:24;2.40;;;0.90;;
6372;SDS011;3219;51.362;7.074;2022-10-16T12:47:54;4.75;;;0.85;;
6372;SDS011;3219;51.362;7.074;2022-10-16T12:50:32;4.25;;;1.00;;
6372;SDS011;3219;51.362;7.074;2022-10-16T12:53:01;6.20;;;1.13;;
6372;SDS011;3219;51.362;7.074;2022-10-16T12:55:31;2.38;;;0.70;;
6372;SDS011;3219;51.362;7.074;2022-10-16T12:58:11;5.13;;;1.00;;
6372;SDS011;3219;51.362;7.074;2022-10-16T13:00:56;3.63;;;1.00;;
6372;SDS011;3219;51.362;7.074;2022-10-16T13:03:37;5.25;;;0.95;;
6372;SDS011;3219;51.362;7.074;2022-10-16T13:06:20;9.27;;;0.80;;
6372;SDS011;3219;51.362;7.074;2022-10-16T13:09:11;5.43;;;0.75;;
6372;SDS011;3219;51.362;7.074;2022-10-16T13:11:55;4.95;;;1.33;;
6372;SDS011;3219;51.362;7.074;2022-10-16T13:14:36;2.22;;;1.10;;
6372;SDS011;3219;51.362;7.074;2022-10-16T13:17:15;1.88;;;1.00;;
6372;SDS011;3219;51.362;7.074;2022-10-16T13:19:52;2.55;;;0.90;;
6372;SDS011;3219;51.362;7.074;2022-10-16T13:22:26;5.15;;;1.20;;
6372;SDS011;3219;51.362;7.074;2022-10-16T13:25:02;7.78;;;0.95;;
6372;SDS011;3219;51.362;7.074;2022-10-16T13:27:43;1.83;;;0.88;;
6372;SDS011;3219;51.362;7.074;2022-10-16T13:30:16;7.75;;;0.98;;
6372;SDS011;3219;51.362;7.074;2022-10-16T13:32:47;1.45;;;1.00;;
6372;SDS011;3219;51.362;7.074;2022-10-16T13:35:20;16.55;;;1.17;;
6372;SDS011;3219;51.362;7.074;2022-10-16T13:37:49;3.78;;;0.80;;
6372;SDS011;3219;51.362;7.074;2022-10-16T13:40:21;3.50;;;1.15;;
6372;SDS011;3219;51.362;7.074;2022-10-16T13:42:49;1.58;;;0.60;;
6372;SDS011;3219;51.362;7.074;2022-10-16T13:45:17;2.65;;;1.02;;
6372;SDS011;3219;51.362;7.074;2022-10-16T13:47:47;4.82;;;1.15;;
6372;SDS011;3219;51.362;7.074;2022-10-16T13:50:16;5.00;;;1.20;;
6372;SDS011;3219;51.362;7.074;2022-10-16T13:52:44;2.63;;;0.93;;
6372;SDS011;3219;51.362;7.074;2022-10-16T13:55:12;4.22;;;0.80;;
6372;SDS011;3219;51.362;7.074;2022-10-16T13:57:40;2.50;;;0.80;;
6372;SDS011;3219;51.362;7.074;2022-10-16T14:00:18;3.47;;;0.95;;
6372;SDS011;3219;51.362;7.074;2022-10-16T14:02:50;4.78;;;0.85;;
6372;SDS011;3219;51.362;7.074;2022-10-16T14:05:21;3.38;;;1.00;;
6372;SDS011;3219;51.362;7.074;2022-10-16T14:07:48;2.75;;;0.85;;
6372;SDS011;3219;51.362;7.074;2022-10-16T14:10:22;6.32;;;0.90;;
6372;SDS011;3219;51.362;7.074;2022-10-16T14:12:55;4.53;;;1.25;;
6372;SDS011;3219;51.362;7.074;2022-10-16T14:15:24;3.05;;;0.98;;
6372;SDS011;3219;51.362;7.074;2022-10-16T14:17:52;4.50;;;0.90;;
6372;SDS011;3219;51.362;7.074;2022-10-16T14:20:20;2.65;;;0.75;;
6372;SDS011;3219;51.362;7.074;2022-10-16T14:22:59;2.40;;;0.85;;
6372;SDS011;3219;51.362;7.074;2022-10-16T14:25:27;4.10;;;0.82;;
6372;SDS011;3219;51.362;7.074;2022-10-16T14:27:56;2.00;;;0.73;;
6372;SDS011;3219;51.362;7.074;2022-10-16T14:30:24;1.40;;;0.63;;
6372;SDS011;3219;51.362;7.074;2022-10-16T14:32:54;1.42;;;0.80;;
6372;SDS011;3219;51.362;7.074;2022-10-16T14:35:27;3.17;;;0.90;;
6372;SDS011;3219;51.362;7.074;2022-10-16T14:37:56;8.27;;;1.33;;
6372;SDS011;3219;51.362;7.074;2022-10-16T14:40:24;2.97;;;0.70;;
6372;SDS011;3219;51.362;7.074;2022-10-16T14:42:53;1.35;;;0.70;;
6372;SDS011;3219;51.362;7.074;2022-10-16T14:45:20;3.38;;;0.93;;
6372;SDS011;3219;51.362;7.074;2022-10-16T14:47:49;2.65;;;0.88;;
6372;SDS011;3219;51.362;7.074;2022-10-16T14:50:19;1.27;;;0.60;;
6372;SDS011;3219;51.362;7.074;2022-10-16T14:52:46;2.15;;;0.60;;
6372;SDS011;3219;51.362;7.074;2022-10-16T14:55:14;2.13;;;0.75;;
6372;SDS011;3219;51.362;7.074;2022-10-16T14:57:42;3.45;;;0.90;;
6372;SDS011;3219;51.362;7.074;2022-10-16T15:00:16;4.18;;;0.85;;
6372;SDS011;3219;51.362;7.074;2022-10-16T15:02:45;1.50;;;0.88;;
6372;SDS011;3219;51.362;7.074;2022-10-16T15:05:15;4.88;;;1.20;;
6372;SDS011;3219;51.362;7.074;2022-10-16T15:07:46;1.67;;;0.63;;
6372;SDS011;3219;51.362;7.074;2022-10-16T15:10:14;2.05;;;0.80;;
6372;SDS011;3219;51.362;7.074;2022-10-16T15:12:42;1.85;;;0.90;;
6372;SDS011;3219;51.362;7.074;2022-10-16T15:17:56;3.88;;;0.93;;
6372;SDS011;3219;51.362;7.074;2022-10-16T15:20:26;1.40;;;0.65;;
6372;SDS011;3219;51.362;7.074;2022-10-16T15:22:56;1.65;;;0.80;;
6372;SDS011;3219;51.362;7.074;2022-10-16T15:25:34;1.73;;;0.70;;
6372;SDS011;3219;51.362;7.074;2022-10-16T15:28:04;3.47;;;0.90;;
6372;SDS011;3219;51.362;7.074;2022-10-16T15:30:35;3.00;;;0.95;;
6372;SDS011;3219;51.362;7.074;2022-10-16T15:33:03;1.50;;;0.93;;
6372;SDS011;3219;51.362;7.074;2022-10-16T15:35:31;3.28;;;1.00;;
6372;SDS011;3219;51.362;7.074;2022-10-16T15:37:59;2.13;;;0.95;;
6372;SDS011;3219;51.362;7.074;2022-10-16T15:40:27;2.97;;;0.95;;
6372;SDS011;3219;51.362;7.074;2022-10-16T15:42:54;4.82;;;1.50;;
6372;SDS011;3219;51.362;7.074;2022-10-16T15:45:21;2.95;;;0.80;;
6372;SDS011;3219;51.362;7.074;2022-10-16T15:47:48;1.30;;;0.88;;
6372;SDS011;3219;51.362;7.074;2022-10-16T15:50:15;6.53;;;1.30;;